Time;durP1;ratioP1;P1;durP2;ratioP2;P2;SDS_P1;SDS_P2;PMS_P1;PMS_P2;Temp;Humidity;BMP_temperature;BMP_pressure;BME280_temperature;BME280_humidity;BME280_pressure;Samples;Min_cycle;Max_cycle;Signal;HPM_P1;HPM_P2
2023/01/28 00:01:15;;;;;;;18.65;14.02;;;5.20;60.10;;;;;;4947416;29;20035;-78
2023/01/28 00:03:41;;;;;;;18.27;12.48;;;5.30;60.30;;;;;;4947626;29;20035;-79
2023/01/28 00:06:14;;;;;;;15.27;13.05;;;5.20;60.10;;;;;;4949091;28;20046;-79
2023/01/28 00:08:40;;;;;;;17.40;13.50;;;5.20;60.20;;;;;;4948424;28;20466;-80
2023/01/28 00:11:09;;;;;;;16.02;12.82;;;5.20;60.20;;;;;;4944901;29;20434;-78
2023/01/28 00:13:34;;;;;;;18.48;13.13;;;5.20;60.20;;;;;;4936851;28;20031;-78
2023/01/28 00:16:04;;;;;;;17.70;12.07;;;5.20;60.20;;;;;;4949139;28;20078;-78
2023/01/28 00:18:31;;;;;;;16.33;12.48;;;5.20;60.30;;;;;;4947867;28;20061;-78
2023/01/28 00:21:02;;;;;;;14.65;12.10;;;5.20;60.20;;;;;;4947577;28;20059;-77
2023/01/28 00:23:31;;;;;;;17.83;12.55;;;5.30;60.40;;;;;;4950983;28;20043;-77
2023/01/28 00:25:59;;;;;;;17.65;12.32;;;5.20;60.20;;;;;;4958206;28;20094;-78
2023/01/28 00:28:25;;;;;;;17.73;12.13;;;5.20;60.20;;;;;;4946923;28;20138;-78
2023/01/28 00:30:51;;;;;;;15.27;11.18;;;5.20;60.20;;;;;;4961613;28;20038;-77
2023/01/28 00:33:17;;;;;;;18.52;12.32;;;5.20;60.20;;;;;;4945427;28;20054;-78
2023/01/28 00:35:45;;;;;;;16.40;11.43;;;5.30;60.40;;;;;;4948480;28;20050;-78
2023/01/28 00:38:11;;;;;;;16.02;11.60;;;5.30;60.40;;;;;;4936732;28;20062;-78
2023/01/28 00:40:37;;;;;;;17.52;11.30;;;5.30;60.40;;;;;;4948936;28;20360;-80
2023/01/28 00:43:03;;;;;;;17.27;12.45;;;5.30;60.30;;;;;;4948729;28;20053;-78
2023/01/28 00:45:29;;;;;;;14.60;10.65;;;5.30;60.40;;;;;;4944561;29;20023;-78
2023/01/28 00:47:55;;;;;;;18.52;11.95;;;5.30;60.40;;;;;;4951852;28;20045;-78
2023/01/28 00:50:21;;;;;;;15.70;11.00;;;5.30;60.40;;;;;;4955533;28;20518;-78
2023/01/28 00:52:47;;;;;;;15.25;11.40;;;5.30;60.40;;;;;;4932733;28;20031;-78
2023/01/28 00:55:14;;;;;;;13.68;10.80;;;5.30;60.40;;;;;;4942850;28;20118;-78
2023/01/28 00:57:40;;;;;;;14.63;10.63;;;5.30;60.40;;;;;;4954177;28;20042;-79
2023/01/28 01:00:07;;;;;;;12.85;9.70;;;5.30;60.40;;;;;;4935262;28;20035;-79
2023/01/28 01:02:33;;;;;;;13.52;9.93;;;5.30;60.50;;;;;;4959764;28;20039;-79
2023/01/28 01:04:59;;;;;;;11.63;9.60;;;5.30;60.50;;;;;;4944985;28;20514;-81
2023/01/28 01:07:33;;;;;;;13.43;9.50;;;5.30;60.50;;;;;;4945052;28;20173;-79
2023/01/28 01:10:03;;;;;;;12.32;8.82;;;5.30;60.50;;;;;;4953962;28;20101;-80
2023/01/28 01:12:29;;;;;;;11.75;8.90;;;5.30;60.50;;;;;;4955600;28;20035;-80
2023/01/28 01:14:56;;;;;;;13.32;8.98;;;5.30;60.50;;;;;;4947384;28;20035;-77
2023/01/28 01:17:22;;;;;;;10.73;8.23;;;5.30;60.50;;;;;;4956608;28;20042;-78
2023/01/28 01:19:48;;;;;;;12.25;9.18;;;5.30;60.50;;;;;;4941639;28;20035;-78
2023/01/28 01:22:14;;;;;;;12.27;8.15;;;5.30;60.50;;;;;;4942353;29;20039;-78
2023/01/28 01:24:40;;;;;;;10.32;8.57;;;5.30;60.50;;;;;;4933782;28;20039;-77
2023/01/28 01:27:06;;;;;;;12.55;8.68;;;5.30;60.50;;;;;;4944995;28;20484;-78
2023/01/28 01:29:35;;;;;;;11.20;8.25;;;5.30;60.50;;;;;;4939402;28;20050;-77
2023/01/28 01:32:01;;;;;;;13.30;8.80;;;5.30;60.50;;;;;;4927839;29;20127;-77
2023/01/28 01:34:27;;;;;;;11.30;8.40;;;5.30;60.50;;;;;;4933584;28;20123;-77
2023/01/28 01:36:53;;;;;;;10.63;9.32;;;5.30;60.50;;;;;;4942992;28;20444;-76
2023/01/28 01:39:19;;;;;;;11.30;8.02;;;5.30;60.50;;;;;;4938377;28;20032;-76
2023/01/28 01:41:45;;;;;;;11.65;8.43;;;5.20;60.30;;;;;;4943865;28;20042;-77
2023/01/28 01:44:49;;;;;;;10.75;8.27;;;5.30;60.50;;;;;;4930144;28;20040;-78
2023/01/28 01:47:16;;;;;;;10.40;8.57;;;5.20;60.40;;;;;;4926798;29;20035;-78
2023/01/28 01:49:43;;;;;;;12.02;8.43;;;5.20;60.40;;;;;;4949642;28;20394;-78
2023/01/28 01:52:16;;;;;;;9.27;8.27;;;5.20;60.40;;;;;;4945042;28;20421;-75
2023/01/28 01:54:46;;;;;;;10.70;8.25;;;5.20;60.40;;;;;;4941333;28;20063;-77
2023/01/28 01:57:15;;;;;;;8.77;7.65;;;5.20;60.50;;;;;;4940231;28;20027;-77
2023/01/28 01:59:43;;;;;;;9.07;8.13;;;5.20;60.50;;;;;;4942267;29;20035;-76
2023/01/28 02:02:11;;;;;;;9.52;8.50;;;5.20;60.40;;;;;;4943444;28;20027;-77
2023/01/28 02:04:43;;;;;;;13.18;8.35;;;5.20;60.50;;;;;;4943801;28;20043;-78
2023/01/28 02:07:12;;;;;;;14.48;8.55;;;5.20;60.50;;;;;;4941331;28;20950;-77
2023/01/28 02:09:40;;;;;;;13.50;8.35;;;5.20;60.50;;;;;;4945141;29;20542;-77
2023/01/28 02:12:20;;;;;;;11.13;7.30;;;5.20;60.50;;;;;;4944302;29;20102;-77
2023/01/28 02:15:08;;;;;;;10.23;7.53;;;5.20;60.50;;;;;;4946502;29;20035;-77
2023/01/28 02:17:36;;;;;;;11.70;7.97;;;5.20;60.60;;;;;;4924077;29;20054;-78
2023/01/28 02:20:07;;;;;;;8.73;7.22;;;5.20;60.50;;;;;;4946545;29;20038;-76
2023/01/28 02:23:02;;;;;;;10.57;7.70;;;5.20;60.50;;;;;;4945931;29;20039;-77
2023/01/28 02:25:27;;;;;;;10.65;7.90;;;5.20;60.60;;;;;;4939093;28;20529;-78
2023/01/28 02:28:15;;;;;;;11.48;7.90;;;5.20;60.50;;;;;;4942839;29;20050;-77
2023/01/28 02:30:50;;;;;;;9.60;7.22;;;5.20;60.60;;;;;;4943309;28;20398;-77
2023/01/28 02:33:47;;;;;;;10.63;8.48;;;5.20;60.60;;;;;;4945929;29;20102;-77
2023/01/28 02:36:27;;;;;;;11.27;7.95;;;5.20;60.60;;;;;;4911161;29;20051;-77
2023/01/28 02:39:01;;;;;;;9.40;7.60;;;5.20;60.50;;;;;;4945582;29;20035;-77
2023/01/28 02:41:33;;;;;;;9.75;7.43;;;5.20;60.50;;;;;;4945290;29;20035;-78
2023/01/28 02:44:02;;;;;;;9.27;7.47;;;5.20;60.50;;;;;;4937625;28;20505;-77
2023/01/28 02:49:39;;;;;;;8.68;7.63;;;5.20;60.50;;;;;;4950192;29;20049;-76
2023/01/28 02:52:12;;;;;;;9.52;7.28;;;5.20;60.50;;;;;;4947639;29;20042;-76
2023/01/28 02:54:53;;;;;;;9.38;7.82;;;5.20;60.50;;;;;;4949500;28;20035;-77
2023/01/28 02:57:37;;;;;;;10.35;7.38;;;5.30;60.60;;;;;;4948218;29;20055;-76
2023/01/28 03:00:16;;;;;;;10.27;8.15;;;5.30;60.60;;;;;;4932273;29;20507;-76
2023/01/28 03:02:53;;;;;;;9.75;8.05;;;5.30;60.60;;;;;;4938381;29;20175;-77
2023/01/28 03:05:28;;;;;;;9.25;7.07;;;5.30;60.60;;;;;;4948874;29;20110;-76
2023/01/28 03:07:55;;;;;;;7.63;6.93;;;5.30;60.60;;;;;;4944877;28;20039;-76
2023/01/28 03:10:24;;;;;;;10.68;7.70;;;5.30;60.60;;;;;;4948153;28;20078;-77
2023/01/28 03:38:41;;;;;;;11.35;8.35;;;5.40;60.60;;;;;;4948268;29;20090;-79
2023/01/28 03:41:10;;;;;;;8.75;7.78;;;5.30;60.40;;;;;;4945204;29;20455;-78
2023/01/28 03:43:37;;;;;;;12.05;8.43;;;5.40;60.60;;;;;;4948858;28;20098;-77
2023/01/28 03:46:05;;;;;;;9.93;8.18;;;5.40;60.60;;;;;;4945169;29;20046;-77
2023/01/28 03:48:31;;;;;;;11.05;8.60;;;5.40;60.60;;;;;;4947922;29;20039;-77
2023/01/28 03:50:59;;;;;;;9.05;8.13;;;5.40;60.60;;;;;;4946544;29;20035;-76
2023/01/28 03:53:27;;;;;;;8.82;7.90;;;5.40;60.60;;;;;;4948060;29;20483;-77
2023/01/28 03:55:58;;;;;;;10.32;8.60;;;5.40;60.60;;;;;;4946822;29;20693;-78
2023/01/28 03:58:25;;;;;;;9.63;8.18;;;5.40;60.60;;;;;;4946773;29;20058;-78
2023/01/28 04:00:52;;;;;;;10.05;9.15;;;5.40;60.70;;;;;;4928100;29;20519;-77
2023/01/28 04:03:20;;;;;;;9.38;8.38;;;5.40;60.60;;;;;;4924780;29;20062;-77
2023/01/28 04:06:04;;;;;;;11.77;9.00;;;5.40;60.60;;;;;;4932828;29;20039;-77
2023/01/28 04:08:51;;;;;;;12.02;9.05;;;5.40;60.60;;;;;;4941245;28;20394;-77
2023/01/28 04:11:29;;;;;;;12.30;8.38;;;5.40;60.60;;;;;;4946165;29;20462;-77
2023/01/28 04:13:57;;;;;;;11.45;7.85;;;5.40;60.60;;;;;;4947937;29;20050;-77
2023/01/28 04:16:24;;;;;;;13.63;8.82;;;5.40;60.60;;;;;;4932229;29;20082;-77
2023/01/28 04:18:51;;;;;;;10.98;8.63;;;5.40;60.60;;;;;;4944077;29;20250;-76
2023/01/28 04:21:17;;;;;;;10.82;8.82;;;5.40;60.60;;;;;;4946652;29;20042;-76
2023/01/28 04:23:43;;;;;;;10.02;8.23;;;5.40;60.60;;;;;;4947880;29;20039;-77
2023/01/28 04:26:12;;;;;;;8.73;7.78;;;5.30;60.50;;;;;;4945697;29;20066;-76
2023/01/28 04:28:38;;;;;;;9.63;8.02;;;5.30;60.50;;;;;;4947121;28;20075;-78
2023/01/28 04:31:04;;;;;;;9.68;8.70;;;5.30;60.50;;;;;;4948423;28;20046;-78
2023/01/28 04:33:57;;;;;;;9.93;8.30;;;5.30;60.50;;;;;;4944049;29;20784;-77
2023/01/28 04:36:46;;;;;;;10.52;9.20;;;5.30;60.50;;;;;;4946491;29;20153;-78
2023/01/28 04:39:41;;;;;;;13.32;9.18;;;5.30;60.50;;;;;;4939755;29;20074;-79
2023/01/28 04:42:20;;;;;;;12.35;8.75;;;5.30;60.50;;;;;;4940294;28;20045;-78
2023/01/28 04:45:07;;;;;;;9.98;8.98;;;5.30;60.60;;;;;;4938224;29;20098;-78
2023/01/28 04:48:02;;;;;;;12.52;10.45;;;5.30;60.60;;;;;;4931481;29;20038;-79
2023/01/28 04:50:57;;;;;;;13.50;9.93;;;5.30;60.60;;;;;;4928003;29;20056;-78
2023/01/28 04:53:42;;;;;;;11.13;8.85;;;5.30;60.60;;;;;;4942101;29;20031;-79
2023/01/28 04:56:23;;;;;;;9.93;8.68;;;5.30;60.60;;;;;;4946129;28;20055;-78
2023/01/28 04:58:50;;;;;;;10.25;8.50;;;5.30;60.60;;;;;;4921654;29;20034;-78
2023/01/28 05:01:16;;;;;;;11.10;9.43;;;5.30;60.60;;;;;;4946730;29;20067;-78
2023/01/28 05:03:42;;;;;;;12.02;10.18;;;5.30;60.60;;;;;;4943902;28;20079;-78
2023/01/28 05:06:12;;;;;;;13.43;9.23;;;5.30;60.60;;;;;;4948140;29;20093;-78
2023/01/28 05:08:42;;;;;;;11.57;9.07;;;5.30;61.10;;;;;;4947947;28;20039;-78
2023/01/28 05:11:08;;;;;;;11.90;9.23;;;5.30;60.60;;;;;;4943071;29;20456;-78
2023/01/28 05:13:34;;;;;;;12.25;10.27;;;5.30;60.60;;;;;;4948439;29;20039;-78
2023/01/28 05:16:02;;;;;;;10.98;9.13;;;5.30;60.60;;;;;;4949102;28;20282;-78
2023/01/28 05:18:28;;;;;;;11.43;10.00;;;5.30;60.60;;;;;;4947066;29;20506;-78
2023/01/28 05:21:09;;;;;;;13.70;9.98;;;5.30;60.60;;;;;;4926458;29;20039;-77
2023/01/28 05:23:37;;;;;;;13.38;9.40;;;5.30;60.60;;;;;;4946371;29;20031;-78
2023/01/28 05:26:03;;;;;;;13.73;10.40;;;5.30;60.60;;;;;;4945753;29;20077;-78
2023/01/28 05:28:30;;;;;;;12.50;10.50;;;5.30;60.60;;;;;;4944500;28;20047;-77
2023/01/28 05:31:05;;;;;;;10.75;9.65;;;5.30;60.60;;;;;;4946943;29;20039;-78
2023/01/28 05:33:31;;;;;;;12.20;10.38;;;5.30;60.60;;;;;;4934649;29;20035;-77
2023/01/28 05:35:58;;;;;;;13.75;9.85;;;5.20;60.40;;;;;;4944839;29;20039;-78
2023/01/28 05:38:24;;;;;;;12.63;10.48;;;5.30;60.60;;;;;;4946659;29;20394;-77
2023/01/28 05:40:50;;;;;;;16.48;10.52;;;5.20;60.40;;;;;;4946219;28;20039;-77
2023/01/28 05:43:16;;;;;;;11.32;9.80;;;5.30;61.10;;;;;;4950012;28;20545;-77
2023/01/28 05:45:46;;;;;;;13.15;10.70;;;5.30;60.60;;;;;;4948345;29;20066;-77
2023/01/28 05:48:21;;;;;;;11.85;10.13;;;5.20;60.50;;;;;;4946310;29;20035;-77
2023/01/28 05:51:00;;;;;;;12.18;10.10;;;5.20;60.50;;;;;;4944948;29;20035;-76
2023/01/28 05:53:35;;;;;;;10.80;9.70;;;5.30;60.60;;;;;;4946391;29;20062;-77
2023/01/28 05:56:01;;;;;;;12.70;9.95;;;5.30;60.60;;;;;;4944213;29;20046;-77
2023/01/28 05:58:30;;;;;;;12.88;10.65;;;5.30;60.60;;;;;;4944843;29;20040;-77
2023/01/28 06:00:59;;;;;;;13.45;10.65;;;5.30;60.60;;;;;;4944883;29;20139;-78
2023/01/28 06:03:30;;;;;;;13.48;10.02;;;5.30;60.60;;;;;;4943430;29;20125;-80
2023/01/28 06:05:56;;;;;;;11.10;9.90;;;5.30;60.60;;;;;;4929665;29;20494;-80
2023/01/28 06:08:22;;;;;;;10.50;9.40;;;5.30;60.60;;;;;;4944628;29;20042;-80
2023/01/28 06:10:48;;;;;;;11.75;9.65;;;5.30;60.60;;;;;;4943851;29;20037;-80
2023/01/28 06:13:14;;;;;;;11.70;9.60;;;5.30;60.60;;;;;;4945891;29;20039;-80
2023/01/28 06:15:55;;;;;;;13.30;9.85;;;5.30;60.60;;;;;;4945531;29;20581;-79
2023/01/28 06:18:43;;;;;;;12.82;10.48;;;5.30;60.60;;;;;;4934355;29;20039;-80
2023/01/28 06:21:09;;;;;;;11.60;9.73;;;5.30;60.50;;;;;;4943800;29;20554;-79
2023/01/28 06:23:36;;;;;;;13.20;10.25;;;5.30;60.50;;;;;;4945853;29;20114;-78
2023/01/28 06:26:06;;;;;;;11.80;10.27;;;5.30;60.60;;;;;;4946144;29;20074;-78
2023/01/28 06:28:34;;;;;;;14.35;10.05;;;5.30;60.50;;;;;;4944145;29;20055;-83
2023/01/28 06:31:00;;;;;;;12.43;10.05;;;5.30;61.10;;;;;;4948595;29;20039;-86
2023/01/28 06:33:27;;;;;;;11.13;10.02;;;5.30;60.50;;;;;;4941334;28;20241;-85
2023/01/28 06:35:54;;;;;;;12.20;10.77;;;5.30;60.50;;;;;;4947393;28;20036;-78
2023/01/28 06:38:20;;;;;;;11.23;9.98;;;5.30;60.50;;;;;;4929179;29;20058;-77
2023/01/28 06:40:54;;;;;;;14.30;10.80;;;5.30;60.70;;;;;;4945763;28;20206;-81
2023/01/28 06:43:26;;;;;;;11.38;10.05;;;5.40;61.20;;;;;;4944939;28;20023;-81
2023/01/28 06:45:59;;;;;;;11.73;9.93;;;5.50;61.50;;;;;;4944360;28;20066;-79
2023/01/28 06:48:26;;;;;;;14.40;9.60;;;5.60;61.80;;;;;;4949162;28;20038;-81
2023/01/28 06:50:52;;;;;;;15.35;9.73;;;5.80;62.20;;;;;;4950538;28;20039;-78
2023/01/28 06:53:19;;;;;;;12.23;9.90;;;5.90;62.40;;;;;;4947748;28;20039;-81
2023/01/28 06:55:45;;;;;;;18.60;11.80;;;6.10;62.70;;;;;;4949578;28;20041;-81
2023/01/28 06:58:11;;;;;;;14.40;11.50;;;6.20;62.90;;;;;;4943641;29;20273;-80
2023/01/28 07:00:37;;;;;;;15.25;11.48;;;6.40;63.70;;;;;;4947111;28;20038;-82
2023/01/28 07:03:04;;;;;;;12.48;10.40;;;6.50;63.40;;;;;;4949543;28;20461;-83
2023/01/28 07:05:30;;;;;;;15.48;11.57;;;6.60;63.50;;;;;;4953938;28;20027;-76
2023/01/28 07:07:56;;;;;;;18.23;11.48;;;6.70;63.60;;;;;;4931351;29;20117;-76
2023/01/28 07:10:22;;;;;;;11.38;10.27;;;6.80;63.80;;;;;;4942459;29;20542;-76
2023/01/28 07:12:47;;;;;;;14.60;9.90;;;6.90;63.90;;;;;;4945507;28;20031;-78
2023/01/28 07:15:14;;;;;;;10.40;9.00;;;7.00;64.10;;;;;;4949496;28;20693;-78
2023/01/28 07:17:41;;;;;;;12.18;9.30;;;7.00;64.00;;;;;;4964652;28;20121;-86
2023/01/28 07:20:10;;;;;;;11.38;9.02;;;7.20;64.60;;;;;;4934537;28;20696;-75
2023/01/28 07:22:38;;;;;;;12.07;9.80;;;7.30;64.90;;;;;;4949550;28;20596;-79
2023/01/28 07:25:05;;;;;;;11.43;9.57;;;7.50;65.20;;;;;;4950431;28;20683;-78
2023/01/28 07:27:31;;;;;;;9.43;8.27;;;7.70;65.50;;;;;;4946116;28;20071;-83
2023/01/28 07:29:57;;;;;;;11.15;9.32;;;7.90;65.50;;;;;;4942071;29;20510;-79
2023/01/28 07:32:25;;;;;;;27.73;10.48;;;8.10;65.50;;;;;;4956945;28;20035;-79
2023/01/28 07:34:52;;;;;;;12.82;8.80;;;8.20;65.40;;;;;;4959291;28;20501;-79
2023/01/28 07:37:18;;;;;;;13.80;10.23;;;8.20;65.10;;;;;;4937234;28;20095;-81
2023/01/28 07:39:44;;;;;;;9.63;8.60;;;8.30;65.20;;;;;;4943476;28;20475;-80
2023/01/28 07:42:10;;;;;;;13.30;9.45;;;8.30;65.10;;;;;;4948810;28;20039;-80
2023/01/28 07:44:37;;;;;;;11.93;10.35;;;8.40;65.30;;;;;;4944681;28;20035;-79
2023/01/28 07:47:04;;;;;;;10.13;9.00;;;8.30;65.20;;;;;;4944407;28;20035;-80
2023/01/28 07:49:32;;;;;;;10.00;8.63;;;8.30;65.30;;;;;;4952506;28;20050;-78
2023/01/28 07:51:58;;;;;;;10.55;9.25;;;8.30;65.30;;;;;;4940594;28;20032;-80
2023/01/28 07:54:24;;;;;;;10.93;8.57;;;8.40;65.50;;;;;;4941499;29;20364;-77
2023/01/28 07:56:49;;;;;;;9.23;8.32;;;8.40;65.50;;;;;;4949978;28;20035;-77
2023/01/28 07:59:15;;;;;;;10.15;8.70;;;8.40;65.50;;;;;;4946606;28;20125;-89
2023/01/28 08:01:41;;;;;;;10.63;8.55;;;8.40;65.50;;;;;;4931856;29;20050;-85
2023/01/28 08:04:07;;;;;;;10.00;8.30;;;8.40;65.80;;;;;;4947738;28;20448;-88
2023/01/28 08:06:36;;;;;;;9.65;8.23;;;8.40;65.50;;;;;;4949846;28;20035;-88
2023/01/28 08:09:07;;;;;;;9.85;8.80;;;8.40;65.50;;;;;;4944352;28;20035;-85
2023/01/28 08:11:35;;;;;;;9.18;8.27;;;8.50;65.70;;;;;;4942163;29;20390;-86
2023/01/28 08:14:00;;;;;;;9.30;8.13;;;8.50;65.60;;;;;;4945428;28;20038;-87
2023/01/28 08:16:28;;;;;;;9.65;7.93;;;8.50;65.50;;;;;;4947650;28;20035;-88
2023/01/28 08:18:54;;;;;;;8.85;7.88;;;8.50;65.50;;;;;;4945158;29;20115;-87
2023/01/28 08:21:20;;;;;;;8.57;7.78;;;8.50;65.40;;;;;;4950234;28;20102;-92
2023/01/28 08:23:46;;;;;;;11.02;9.00;;;8.50;65.30;;;;;;4949593;28;20122;-87
2023/01/28 08:26:12;;;;;;;10.02;8.52;;;8.50;65.30;;;;;;4948715;28;20661;-87
2023/01/28 08:28:37;;;;;;;9.30;8.40;;;8.60;65.40;;;;;;4948126;28;20144;-86
2023/01/28 08:31:04;;;;;;;9.57;8.57;;;8.60;65.40;;;;;;4947645;29;20050;-87
2023/01/28 08:33:32;;;;;;;8.30;7.45;;;8.60;65.30;;;;;;4947692;29;20072;-88
2023/01/28 08:36:03;;;;;;;9.32;8.30;;;8.60;65.20;;;;;;4947365;29;20070;-84
2023/01/28 08:38:29;;;;;;;11.27;8.45;;;8.60;65.10;;;;;;4960710;28;20031;-84
2023/01/28 08:40:58;;;;;;;9.98;8.52;;;8.70;65.20;;;;;;4944473;29;20038;-83
2023/01/28 08:43:24;;;;;;;13.00;8.77;;;8.70;65.10;;;;;;4948530;28;20039;-87
2023/01/28 08:45:52;;;;;;;11.68;9.32;;;8.70;65.00;;;;;;4941060;28;20113;-87
2023/01/28 08:48:18;;;;;;;10.45;8.95;;;8.70;65.00;;;;;;4961424;28;20201;-85
2023/01/28 08:50:45;;;;;;;10.80;8.38;;;8.80;65.10;;;;;;4949501;28;20043;-81
2023/01/28 08:53:16;;;;;;;11.32;8.75;;;8.80;65.00;;;;;;4965171;28;20041;-82
2023/01/28 08:55:42;;;;;;;10.95;8.55;;;8.90;65.10;;;;;;4954648;28;20261;-80
2023/01/28 08:58:16;;;;;;;10.93;8.70;;;8.80;64.90;;;;;;4942968;28;20487;-78
2023/01/28 09:00:43;;;;;;;14.10;8.35;;;8.90;65.00;;;;;;4959745;28;20118;-81
2023/01/28 09:03:09;;;;;;;10.35;9.25;;;8.90;65.00;;;;;;4963922;28;20027;-79
2023/01/28 09:05:36;;;;;;;11.13;8.98;;;9.00;65.00;;;;;;4949665;28;20035;-81
2023/01/28 09:08:11;;;;;;;10.05;9.15;;;9.00;64.90;;;;;;4953675;28;20321;-82
2023/01/28 09:10:37;;;;;;;10.10;8.32;;;9.10;65.00;;;;;;4956913;28;20260;-81
2023/01/28 09:13:05;;;;;;;11.35;8.80;;;9.10;64.80;;;;;;4943095;28;20059;-89
2023/01/28 09:15:32;;;;;;;9.38;7.75;;;9.10;64.60;;;;;;4945532;28;20066;-88
2023/01/28 09:17:58;;;;;;;9.00;8.10;;;9.10;64.60;;;;;;4949635;28;20069;-88
2023/01/28 09:20:25;;;;;;;11.68;9.02;;;9.10;64.40;;;;;;4941592;28;20027;-80
2023/01/28 09:22:51;;;;;;;10.30;8.50;;;9.20;64.40;;;;;;4943331;28;20039;-82
2023/01/28 09:25:17;;;;;;;11.15;8.55;;;9.20;64.30;;;;;;4938316;28;20757;-80
2023/01/28 09:27:42;;;;;;;13.30;9.00;;;9.20;64.20;;;;;;4938446;29;20781;-82
2023/01/28 09:30:09;;;;;;;9.65;8.63;;;9.20;64.00;;;;;;4943251;29;20541;-83
2023/01/28 09:32:35;;;;;;;12.77;7.88;;;9.20;63.80;;;;;;4944612;28;20447;-79
2023/01/28 09:35:02;;;;;;;13.23;8.15;;;9.20;63.70;;;;;;4952859;28;20043;-86
2023/01/28 09:37:28;;;;;;;9.70;7.53;;;9.30;63.70;;;;;;4946726;28;20306;-88
2023/01/28 09:39:54;;;;;;;12.70;7.15;;;9.40;63.90;;;;;;4950165;28;20053;-89
2023/01/28 09:42:31;;;;;;;7.05;6.22;;;9.50;64.10;;;;;;4949427;28;20054;-89
2023/01/28 09:45:39;;;;;;;9.10;6.35;;;9.70;64.50;;;;;;4938783;28;20046;-91
2023/01/28 09:48:11;;;;;;;10.25;6.15;;;9.90;64.40;;;;;;4912547;29;20523;-83
2023/01/28 09:50:41;;;;;;;8.17;6.53;;;10.10;64.30;;;;;;4899448;29;20040;-88
2023/01/28 09:53:18;;;;;;;10.70;6.68;;;10.40;64.40;;;;;;4919489;29;20039;-92
2023/01/28 09:56:06;;;;;;;8.38;6.40;;;10.50;64.20;;;;;;4948613;29;20043;-83
2023/01/28 09:58:32;;;;;;;7.55;5.53;;;10.80;64.30;;;;;;4938560;29;20063;-83
2023/01/28 10:01:03;;;;;;;10.82;6.03;;;11.00;64.20;;;;;;4942227;29;20087;-84
2023/01/28 10:04:00;;;;;;;8.40;6.55;;;11.10;63.90;;;;;;4943966;29;20032;-88
2023/01/28 10:06:54;;;;;;;9.48;6.50;;;11.30;63.80;;;;;;4925567;29;20051;-85
2023/01/28 10:09:30;;;;;;;;;;;11.50;63.70;;;;;;4942978;28;20058;-82
2023/01/28 10:12:21;;;;;;;6.45;5.80;;;11.60;63.50;;;;;;4941703;29;20394;-86
2023/01/28 10:14:53;;;;;;;7.88;6.05;;;11.80;63.30;;;;;;4941669;28;20050;-78
2023/01/28 10:17:41;;;;;;;7.53;6.72;;;11.80;63.00;;;;;;4935585;28;20035;-77
2023/01/28 10:20:16;;;;;;;8.57;7.22;;;11.70;62.30;;;;;;4942439;29;20535;-78
2023/01/28 10:22:47;;;;;;;10.18;7.93;;;11.60;62.30;;;;;;4942601;29;20566;-78
2023/01/28 10:25:21;;;;;;;10.75;7.30;;;11.50;62.00;;;;;;4944108;28;20073;-77
2023/01/28 10:27:48;;;;;;;9.63;7.70;;;11.40;61.70;;;;;;4939291;28;20170;-76
2023/01/28 10:30:25;;;;;;;11.20;8.63;;;11.30;61.60;;;;;;4942459;29;20476;-78
2023/01/28 10:32:53;;;;;;;10.77;8.18;;;11.20;61.30;;;;;;4947219;29;20292;-74
2023/01/28 10:35:20;;;;;;;8.45;7.63;;;11.10;61.30;;;;;;4948002;28;20043;-78
2023/01/28 10:37:46;;;;;;;9.85;8.20;;;11.00;61.00;;;;;;4947049;28;20110;-79
2023/01/28 10:40:17;;;;;;;9.70;8.00;;;11.00;61.00;;;;;;4947278;28;20042;-79
2023/01/28 10:42:43;;;;;;;12.20;8.18;;;10.90;60.60;;;;;;4946920;28;20035;-86
2023/01/28 10:45:39;;;;;;;10.05;7.70;;;10.80;60.50;;;;;;4931654;29;20028;-88
2023/01/28 10:48:15;;;;;;;9.68;8.68;;;10.80;60.40;;;;;;4968933;28;20546;-92
2023/01/28 10:51:07;;;;;;;10.07;8.07;;;10.70;60.30;;;;;;4953721;28;20043;-91
2023/01/28 10:53:34;;;;;;;9.30;7.82;;;10.70;60.00;;;;;;4954955;29;20027;-93
2023/01/28 10:56:03;;;;;;;10.90;7.60;;;10.70;60.10;;;;;;4951194;29;20364;-86
2023/01/28 10:58:33;;;;;;;8.63;7.72;;;10.70;60.00;;;;;;4942159;29;20099;-92
2023/01/28 11:01:01;;;;;;;8.65;7.03;;;10.70;59.80;;;;;;4959442;28;20039;-90
2023/01/28 11:03:29;;;;;;;8.57;6.97;;;10.60;59.50;;;;;;4959478;28;20031;-91
2023/01/28 11:05:57;;;;;;;8.02;6.10;;;10.60;59.40;;;;;;4945222;29;20038;-93
2023/01/28 11:08:25;;;;;;;7.35;6.55;;;10.60;59.30;;;;;;4965044;28;20851;-93
2023/01/28 11:10:53;;;;;;;8.20;7.40;;;10.50;59.00;;;;;;4962905;29;20043;-91
2023/01/28 11:13:24;;;;;;;8.32;6.85;;;10.50;59.00;;;;;;4938819;29;20479;-92
2023/01/28 11:15:59;;;;;;;9.18;7.07;;;10.50;58.90;;;;;;4966645;29;20031;-94
2023/01/28 11:18:32;;;;;;;7.40;6.70;;;10.50;58.60;;;;;;4965560;29;20587;-91
2023/01/28 11:21:03;;;;;;;9.18;6.95;;;10.50;58.70;;;;;;4954728;28;20042;-90
2023/01/28 11:23:47;;;;;;;8.35;7.55;;;10.40;58.40;;;;;;4956871;29;20513;-93
2023/01/28 11:26:23;;;;;;;9.60;7.53;;;10.40;58.30;;;;;;4922870;29;20050;-88
2023/01/28 11:28:53;;;;;;;7.35;6.45;;;10.40;58.30;;;;;;4955545;28;20130;-92
2023/01/28 11:31:23;;;;;;;9.23;7.45;;;10.40;58.30;;;;;;4957529;29;20035;-79
2023/01/28 11:34:01;;;;;;;10.55;6.25;;;10.40;58.20;;;;;;4938206;28;20031;-77
2023/01/28 11:36:29;;;;;;;9.05;6.03;;;10.30;58.10;;;;;;4947042;28;20046;-77
2023/01/28 11:38:59;;;;;;;7.38;6.10;;;10.40;58.50;;;;;;4943682;28;20479;-77
2023/01/28 11:41:34;;;;;;;7.28;6.57;;;10.50;58.90;;;;;;4948777;28;20015;-78
2023/01/28 11:44:11;;;;;;;9.88;6.43;;;10.60;59.00;;;;;;4943895;28;20031;-77
2023/01/28 11:46:56;;;;;;;9.32;6.35;;;10.70;58.90;;;;;;4936712;28;20038;-77
2023/01/28 11:50:07;;;;;;;8.55;6.53;;;10.80;58.80;;;;;;4945598;28;20544;-78
2023/01/28 11:52:51;;;;;;;7.68;6.68;;;10.90;58.80;;;;;;4904156;28;20039;-74
2023/01/28 11:55:40;;;;;;;7.13;6.07;;;11.00;58.90;;;;;;4945047;28;20062;-74
2023/01/28 11:58:14;;;;;;;7.45;6.07;;;11.10;58.70;;;;;;4945236;28;20087;-77
2023/01/28 12:01:11;;;;;;;7.35;6.25;;;11.20;58.80;;;;;;4958453;28;20129;-76
2023/01/28 12:03:43;;;;;;;7.15;6.45;;;11.20;58.70;;;;;;4954436;28;20031;-76
2023/01/28 12:06:35;;;;;;;10.00;7.32;;;11.30;58.90;;;;;;4950585;28;20142;-77
2023/01/28 12:09:20;;;;;;;9.37;7.30;;;11.40;59.00;;;;;;4944868;28;20042;-78
2023/01/28 12:12:10;;;;;;;13.63;7.82;;;11.40;58.90;;;;;;4950496;28;20050;-77
2023/01/28 12:15:04;;;;;;;9.68;7.60;;;11.50;59.20;;;;;;4933644;28;20031;-77
2023/01/28 12:17:45;;;;;;;9.73;7.20;;;11.50;59.10;;;;;;4958660;28;20094;-76
2023/01/28 12:20:21;;;;;;;8.38;7.47;;;11.60;59.20;;;;;;4946022;28;20125;-81
2023/01/28 12:23:08;;;;;;;11.18;8.82;;;11.60;59.10;;;;;;4935725;29;20223;-86
2023/01/28 12:25:52;;;;;;;9.45;7.72;;;11.50;58.80;;;;;;4929509;29;20402;-86
2023/01/28 12:28:32;;;;;;;10.30;8.45;;;11.40;58.70;;;;;;4942488;29;20051;-89
2023/01/28 12:31:23;;;;;;;9.38;7.65;;;11.40;58.60;;;;;;4939116;29;20490;-79
2023/01/28 12:34:20;;;;;;;8.75;7.85;;;11.30;58.50;;;;;;4934148;28;20150;-75
2023/01/28 12:36:55;;;;;;;11.18;7.65;;;11.20;58.40;;;;;;4944957;28;20035;-77
2023/01/28 12:39:48;;;;;;;8.73;6.93;;;11.10;58.80;;;;;;4942686;29;20044;-74
2023/01/28 12:42:26;;;;;;;12.10;6.82;;;11.00;57.90;;;;;;4933523;28;20039;-74
2023/01/28 12:45:03;;;;;;;8.90;7.10;;;11.00;58.00;;;;;;4932200;28;20046;-74
2023/01/28 12:47:36;;;;;;;18.92;8.93;;;10.90;57.90;;;;;;4928829;28;20503;-73
2023/01/28 12:50:18;;;;;;;8.80;7.13;;;10.90;57.90;;;;;;4946397;28;20051;-74
2023/01/28 12:52:59;;;;;;;9.48;6.97;;;10.80;57.70;;;;;;4938865;28;20036;-74
2023/01/28 12:55:45;;;;;;;8.65;6.68;;;10.70;57.60;;;;;;4944627;28;20043;-74
2023/01/28 12:58:27;;;;;;;7.18;6.25;;;10.60;57.40;;;;;;4957867;28;20046;-75
2023/01/28 13:00:59;;;;;;;8.33;7.43;;;10.60;57.40;;;;;;4957633;28;20030;-73
2023/01/28 13:03:44;;;;;;;8.38;6.57;;;10.50;57.40;;;;;;4938076;28;20492;-73
2023/01/28 13:06:20;;;;;;;8.20;6.50;;;10.50;57.40;;;;;;4952249;28;20031;-74
2023/01/28 13:08:48;;;;;;;7.95;6.50;;;10.50;57.40;;;;;;4958639;28;20043;-73
2023/01/28 13:11:17;;;;;;;9.65;6.82;;;10.50;57.50;;;;;;4935416;28;20035;-74
2023/01/28 13:13:45;;;;;;;7.55;6.32;;;10.40;57.10;;;;;;4951871;28;20031;-75
2023/01/28 13:16:12;;;;;;;9.23;6.60;;;10.40;57.10;;;;;;4946501;28;20526;-74
2023/01/28 13:18:47;;;;;;;8.18;6.05;;;10.40;57.10;;;;;;4943536;28;20031;-73
2023/01/28 13:21:23;;;;;;;9.85;6.45;;;10.40;57.10;;;;;;4951006;28;20051;-81
2023/01/28 13:24:01;;;;;;;10.93;8.40;;;10.40;57.10;;;;;;4948010;28;20038;-80
2023/01/28 13:26:36;;;;;;;7.15;6.25;;;10.50;57.40;;;;;;4937087;29;20050;-78
2023/01/28 13:29:23;;;;;;;10.75;7.03;;;10.60;57.80;;;;;;4946401;28;20040;-78
2023/01/28 13:31:55;;;;;;;8.40;6.90;;;10.60;57.90;;;;;;4940228;28;20047;-79
2023/01/28 13:34:55;;;;;;;8.88;7.25;;;10.70;58.10;;;;;;4949457;28;20050;-73
2023/01/28 13:37:38;;;;;;;7.07;6.28;;;10.90;58.50;;;;;;4940093;28;20125;-75
2023/01/28 13:40:13;;;;;;;11.95;6.38;;;11.00;58.60;;;;;;4945943;28;20031;-74